sensor_id;sensor_type;location;lat;lon;timestamp;pressure;altitude;pressure_sealevel;temperature;humidity
71778;BME280;59609;52.430;4.668;2022-12-18T00:01:37;102828.31;;;-3.06;100.00
71778;BME280;59609;52.430;4.668;2022-12-18T00:04:04;102823.25;;;-3.22;100.00
71778;BME280;59609;52.430;4.668;2022-12-18T00:06:31;102831.34;;;-3.23;100.00
71778;BME280;59609;52.430;4.668;2022-12-18T00:08:59;102830.31;;;-3.16;100.00
71778;BME280;59609;52.430;4.668;2022-12-18T00:11:28;102827.59;;;-3.15;100.00
71778;BME280;59609;52.430;4.668;2022-12-18T00:13:55;102831.97;;;-3.09;100.00
71778;BME280;59609;52.430;4.668;2022-12-18T00:16:22;102833.75;;;-3.08;100.00
71778;BME280;59609;52.430;4.668;2022-12-18T00:18:52;102830.44;;;-3.22;100.00
71778;BME280;59609;52.430;4.668;2022-12-18T00:21:19;102824.28;;;-3.30;100.00
71778;BME280;59609;52.430;4.668;2022-12-18T00:23:45;102824.13;;;-3.21;100.00
71778;BME280;59609;52.430;4.668;2022-12-18T00:26:14;102824.91;;;-3.16;100.00
71778;BME280;59609;52.430;4.668;2022-12-18T00:28:40;102823.03;;;-3.11;100.00
71778;BME280;59609;52.430;4.668;2022-12-18T00:31:08;102838.38;;;-3.16;100.00
71778;BME280;59609;52.430;4.668;2022-12-18T00:33:35;102831.47;;;-3.28;100.00
71778;BME280;59609;52.430;4.668;2022-12-18T00:36:05;102828.72;;;-3.26;100.00
71778;BME280;59609;52.430;4.668;2022-12-18T00:38:30;102839.19;;;-3.11;100.00
71778;BME280;59609;52.430;4.668;2022-12-18T00:40:56;102828.50;;;-3.16;100.00
71778;BME280;59609;52.430;4.668;2022-12-18T00:43:21;102833.97;;;-3.19;100.00
71778;BME280;59609;52.430;4.668;2022-12-18T00:45:46;102832.25;;;-3.23;100.00
71778;BME280;59609;52.430;4.668;2022-12-18T00:48:12;102818.91;;;-3.29;100.00
71778;BME280;59609;52.430;4.668;2022-12-18T00:50:37;102809.00;;;-3.28;100.00
71778;BME280;59609;52.430;4.668;2022-12-18T00:53:03;102807.28;;;-3.31;100.00
71778;BME280;59609;52.430;4.668;2022-12-18T00:55:28;102816.31;;;-3.35;100.00
71778;BME280;59609;52.430;4.668;2022-12-18T00:57:54;102817.09;;;-3.28;100.00
71778;BME280;59609;52.430;4.668;2022-12-18T01:00:19;102825.25;;;-3.31;100.00
71778;BME280;59609;52.430;4.668;2022-12-18T01:02:45;102829.66;;;-3.29;100.00
71778;BME280;59609;52.430;4.668;2022-12-18T01:05:12;102831.53;;;-3.32;100.00
71778;BME280;59609;52.430;4.668;2022-12-18T01:07:38;102842.03;;;-3.19;100.00
71778;BME280;59609;52.430;4.668;2022-12-18T01:10:04;102832.38;;;-3.30;100.00
71778;BME280;59609;52.430;4.668;2022-12-18T01:12:31;102845.00;;;-3.32;100.00
71778;BME280;59609;52.430;4.668;2022-12-18T01:14:56;102837.19;;;-3.46;100.00
71778;BME280;59609;52.430;4.668;2022-12-18T01:17:22;102833.44;;;-3.37;100.00
71778;BME280;59609;52.430;4.668;2022-12-18T01:19:47;102845.91;;;-3.32;100.00
71778;BME280;59609;52.430;4.668;2022-12-18T01:22:12;102849.63;;;-3.37;100.00
71778;BME280;59609;52.430;4.668;2022-12-18T01:24:38;102846.09;;;-3.41;100.00
71778;BME280;59609;52.430;4.668;2022-12-18T01:27:03;102840.69;;;-3.41;100.00
71778;BME280;59609;52.430;4.668;2022-12-18T01:29:29;102843.16;;;-3.30;100.00
71778;BME280;59609;52.430;4.668;2022-12-18T01:31:55;102841.53;;;-3.37;100.00
71778;BME280;59609;52.430;4.668;2022-12-18T01:34:20;102843.34;;;-3.38;100.00
71778;BME280;59609;52.430;4.668;2022-12-18T01:36:46;102846.88;;;-3.36;100.00
71778;BME280;59609;52.430;4.668;2022-12-18T01:39:13;102845.25;;;-3.44;100.00
71778;BME280;59609;52.430;4.668;2022-12-18T01:41:39;102840.00;;;-3.50;100.00
71778;BME280;59609;52.430;4.668;2022-12-18T01:45:05;102858.03;;;-3.55;100.00
71778;BME280;59609;52.430;4.668;2022-12-18T01:53:10;102854.44;;;-3.56;100.00
71778;BME280;59609;52.430;4.668;2022-12-18T01:55:41;102865.22;;;-3.56;100.00
71778;BME280;59609;52.430;4.668;2022-12-18T01:58:08;102871.41;;;-3.51;100.00
71778;BME280;59609;52.430;4.668;2022-12-18T02:00:33;102884.25;;;-3.65;100.00
71778;BME280;59609;52.430;4.668;2022-12-18T02:02:59;102884.28;;;-3.68;100.00
71778;BME280;59609;52.430;4.668;2022-12-18T02:05:53;102887.88;;;-3.68;100.00
71778;BME280;59609;52.430;4.668;2022-12-18T02:08:31;102880.72;;;-3.70;100.00
71778;BME280;59609;52.430;4.668;2022-12-18T02:11:10;102877.97;;;-3.66;100.00
71778;BME280;59609;52.430;4.668;2022-12-18T02:21:54;102872.50;;;-3.61;100.00
71778;BME280;59609;52.430;4.668;2022-12-18T02:26:55;102876.94;;;-3.60;100.00
71778;BME280;59609;52.430;4.668;2022-12-18T02:29:25;102865.31;;;-3.60;100.00
71778;BME280;59609;52.430;4.668;2022-12-18T02:31:55;102861.66;;;-3.58;100.00
71778;BME280;59609;52.430;4.668;2022-12-18T02:34:28;102849.19;;;-3.64;100.00
71778;BME280;59609;52.430;4.668;2022-12-18T02:36:54;102852.75;;;-3.63;100.00
71778;BME280;59609;52.430;4.668;2022-12-18T02:39:22;102849.69;;;-3.91;100.00
71778;BME280;59609;52.430;4.668;2022-12-18T02:41:49;102839.81;;;-3.90;100.00
71778;BME280;59609;52.430;4.668;2022-12-18T02:44:15;102835.16;;;-3.82;100.00
71778;BME280;59609;52.430;4.668;2022-12-18T02:46:43;102835.16;;;-3.82;100.00
71778;BME280;59609;52.430;4.668;2022-12-18T02:49:21;102832.66;;;-3.93;100.00
71778;BME280;59609;52.430;4.668;2022-12-18T02:57:54;102835.16;;;-3.82;100.00
71778;BME280;59609;52.430;4.668;2022-12-18T03:00:39;102835.34;;;-3.91;100.00
71778;BME280;59609;52.430;4.668;2022-12-18T03:03:11;102836.28;;;-3.95;100.00
71778;BME280;59609;52.430;4.668;2022-12-18T03:05:56;102822.81;;;-3.94;100.00
71778;BME280;59609;52.430;4.668;2022-12-18T03:08:26;102822.03;;;-4.00;100.00
71778;BME280;59609;52.430;4.668;2022-12-18T03:11:03;102827.28;;;-3.93;100.00
71778;BME280;59609;52.430;4.668;2022-12-18T03:16:06;102828.03;;;-3.85;100.00
71778;BME280;59609;52.430;4.668;2022-12-18T03:18:47;102824.28;;;-3.75;100.00
71778;BME280;59609;52.430;4.668;2022-12-18T03:21:14;102812.84;;;-3.89;100.00
71778;BME280;59609;52.430;4.668;2022-12-18T03:23:48;102813.81;;;-3.93;100.00
71778;BME280;59609;52.430;4.668;2022-12-18T03:26:18;102821.88;;;-3.91;100.00
71778;BME280;59609;52.430;4.668;2022-12-18T03:29:16;102821.84;;;-3.90;100.00
71778;BME280;59609;52.430;4.668;2022-12-18T03:31:51;102819.19;;;-3.93;100.00
71778;BME280;59609;52.430;4.668;2022-12-18T03:34:29;102824.84;;;-4.08;100.00
71778;BME280;59609;52.430;4.668;2022-12-18T03:36:56;102813.31;;;-4.14;100.00
71778;BME280;59609;52.430;4.668;2022-12-18T03:39:23;102816.84;;;-4.11;100.00
71778;BME280;59609;52.430;4.668;2022-12-18T03:44:35;102813.22;;;-4.10;100.00
71778;BME280;59609;52.430;4.668;2022-12-18T03:47:16;102807.03;;;-4.15;100.00
71778;BME280;59609;52.430;4.668;2022-12-18T03:50:08;102796.16;;;-4.09;100.00
71778;BME280;59609;52.430;4.668;2022-12-18T03:52:41;102799.63;;;-4.02;100.00
71778;BME280;59609;52.430;4.668;2022-12-18T03:55:09;102788.75;;;-3.95;100.00
71778;BME280;59609;52.430;4.668;2022-12-18T03:57:36;102783.59;;;-4.10;100.00
71778;BME280;59609;52.430;4.668;2022-12-18T04:00:10;102781.75;;;-4.06;100.00
71778;BME280;59609;52.430;4.668;2022-12-18T04:02:38;102780.91;;;-4.10;100.00
71778;BME280;59609;52.430;4.668;2022-12-18T04:05:07;102786.47;;;-4.19;100.00
71778;BME280;59609;52.430;4.668;2022-12-18T04:07:33;102781.84;;;-4.11;100.00
71778;BME280;59609;52.430;4.668;2022-12-18T04:10:01;102776.59;;;-4.17;100.00
71778;BME280;59609;52.430;4.668;2022-12-18T04:12:28;102779.13;;;-4.09;100.00
71778;BME280;59609;52.430;4.668;2022-12-18T04:14:53;102783.59;;;-4.07;100.00
71778;BME280;59609;52.430;4.668;2022-12-18T04:17:19;102783.53;;;-4.04;100.00
71778;BME280;59609;52.430;4.668;2022-12-18T04:19:45;102786.41;;;-4.16;100.00
71778;BME280;59609;52.430;4.668;2022-12-18T04:22:10;102787.53;;;-4.28;100.00
71778;BME280;59609;52.430;4.668;2022-12-18T04:24:36;102799.28;;;-4.35;100.00
71778;BME280;59609;52.430;4.668;2022-12-18T04:27:02;102801.03;;;-4.32;100.00
71778;BME280;59609;52.430;4.668;2022-12-18T04:29:27;102804.56;;;-4.29;100.00
71778;BME280;59609;52.430;4.668;2022-12-18T04:31:53;102800.97;;;-4.29;100.00
71778;BME280;59609;52.430;4.668;2022-12-18T04:34:19;102801.94;;;-4.32;100.00
71778;BME280;59609;52.430;4.668;2022-12-18T04:36:45;102804.63;;;-4.33;100.00
71778;BME280;59609;52.430;4.668;2022-12-18T04:39:10;102807.25;;;-4.27;100.00
71778;BME280;59609;52.430;4.668;2022-12-18T04:41:35;102818.88;;;-4.27;100.00
71778;BME280;59609;52.430;4.668;2022-12-18T04:44:01;102826.06;;;-4.27;100.00
71778;BME280;59609;52.430;4.668;2022-12-18T04:46:26;102825.28;;;-4.35;100.00
71778;BME280;59609;52.430;4.668;2022-12-18T04:48:52;102831.69;;;-4.42;100.00
71778;BME280;59609;52.430;4.668;2022-12-18T04:51:17;102837.97;;;-4.43;100.00
71778;BME280;59609;52.430;4.668;2022-12-18T04:53:42;102827.41;;;-4.55;100.00
71778;BME280;59609;52.430;4.668;2022-12-18T04:56:13;102836.25;;;-4.47;100.00
71778;BME280;59609;52.430;4.668;2022-12-18T04:58:40;102837.16;;;-4.48;100.00
71778;BME280;59609;52.430;4.668;2022-12-18T05:01:06;102824.72;;;-4.55;100.00
71778;BME280;59609;52.430;4.668;2022-12-18T05:03:35;102830.88;;;-4.47;100.00
71778;BME280;59609;52.430;4.668;2022-12-18T05:06:01;102818.44;;;-4.54;100.00
71778;BME280;59609;52.430;4.668;2022-12-18T05:08:26;102820.22;;;-4.56;100.00
71778;BME280;59609;52.430;4.668;2022-12-18T05:10:59;102816.84;;;-4.69;100.00
71778;BME280;59609;52.430;4.668;2022-12-18T05:13:25;102841.00;;;-4.66;100.00
71778;BME280;59609;52.430;4.668;2022-12-18T05:15:52;102838.31;;;-4.66;100.00
71778;BME280;59609;52.430;4.668;2022-12-18T05:18:17;102845.44;;;-4.63;100.00
71778;BME280;59609;52.430;4.668;2022-12-18T05:20:43;102845.47;;;-4.67;100.00
71778;BME280;59609;52.430;4.668;2022-12-18T05:23:08;102844.63;;;-4.69;100.00
71778;BME280;59609;52.430;4.668;2022-12-18T05:25:33;102836.56;;;-4.69;100.00
71778;BME280;59609;52.430;4.668;2022-12-18T05:27:59;102832.06;;;-4.68;100.00
71778;BME280;59609;52.430;4.668;2022-12-18T05:30:24;102824.06;;;-4.73;100.00
71778;BME280;59609;52.430;4.668;2022-12-18T05:32:49;102816.03;;;-4.76;100.00
71778;BME280;59609;52.430;4.668;2022-12-18T05:35:15;102811.56;;;-4.75;100.00
71778;BME280;59609;52.430;4.668;2022-12-18T05:37:40;102809.81;;;-4.79;100.00
71778;BME280;59609;52.430;4.668;2022-12-18T05:40:06;102816.13;;;-4.82;100.00
71778;BME280;59609;52.430;4.668;2022-12-18T05:42:32;102808.06;;;-4.83;100.00
71778;BME280;59609;52.430;4.668;2022-12-18T05:44:57;102811.03;;;-5.03;100.00
71778;BME280;59609;52.430;4.668;2022-12-18T05:47:22;102814.75;;;-5.13;100.00
71778;BME280;59609;52.430;4.668;2022-12-18T05:49:48;102809.47;;;-5.19;100.00
71778;BME280;59609;52.430;4.668;2022-12-18T05:52:13;102804.97;;;-5.18;100.00
71778;BME280;59609;52.430;4.668;2022-12-18T05:54:38;102804.09;;;-5.19;100.00
71778;BME280;59609;52.430;4.668;2022-12-18T05:57:04;102806.72;;;-5.16;100.00
71778;BME280;59609;52.430;4.668;2022-12-18T05:59:30;102803.19;;;-5.18;100.00
71778;BME280;59609;52.430;4.668;2022-12-18T06:01:55;102803.19;;;-5.18;100.00
71778;BME280;59609;52.430;4.668;2022-12-18T06:04:20;102808.56;;;-5.18;100.00
71778;BME280;59609;52.430;4.668;2022-12-18T06:06:46;102805.06;;;-5.25;100.00
71778;BME280;59609;52.430;4.668;2022-12-18T06:09:11;102808.69;;;-5.29;100.00
71778;BME280;59609;52.430;4.668;2022-12-18T06:11:37;102816.69;;;-5.24;100.00
71778;BME280;59609;52.430;4.668;2022-12-18T06:14:04;102813.13;;;-5.25;100.00
71778;BME280;59609;52.430;4.668;2022-12-18T06:16:30;102811.31;;;-5.26;100.00
71778;BME280;59609;52.430;4.668;2022-12-18T06:18:57;102807.78;;;-5.28;100.00
71778;BME280;59609;52.430;4.668;2022-12-18T06:21:22;102806.84;;;-5.27;100.00
71778;BME280;59609;52.430;4.668;2022-12-18T06:23:48;102788.06;;;-5.25;100.00
71778;BME280;59609;52.430;4.668;2022-12-18T06:26:13;102781.78;;;-5.24;100.00
71778;BME280;59609;52.430;4.668;2022-12-18T06:28:39;102779.06;;;-5.21;100.00
71778;BME280;59609;52.430;4.668;2022-12-18T06:31:05;102767.38;;;-5.17;100.00
71778;BME280;59609;52.430;4.668;2022-12-18T06:33:31;102753.84;;;-5.12;100.00
71778;BME280;59609;52.430;4.668;2022-12-18T06:36:01;102750.28;;;-5.13;100.00
71778;BME280;59609;52.430;4.668;2022-12-18T06:38:27;102743.16;;;-5.14;100.00
71778;BME280;59609;52.430;4.668;2022-12-18T06:40:52;102750.28;;;-5.13;100.00
71778;BME280;59609;52.430;4.668;2022-12-18T06:43:18;102752.06;;;-5.12;100.00
71778;BME280;59609;52.430;4.668;2022-12-18T06:45:43;102758.25;;;-5.07;100.00
71778;BME280;59609;52.430;4.668;2022-12-18T06:48:08;102755.56;;;-5.07;100.00
71778;BME280;59609;52.430;4.668;2022-12-18T06:50:34;102749.38;;;-5.12;100.00
71778;BME280;59609;52.430;4.668;2022-12-18T06:52:59;102749.38;;;-5.12;100.00
71778;BME280;59609;52.430;4.668;2022-12-18T06:55:25;102745.84;;;-5.14;100.00
71778;BME280;59609;52.430;4.668;2022-12-18T06:57:50;102735.94;;;-5.10;100.00
71778;BME280;59609;52.430;4.668;2022-12-18T07:00:16;102740.47;;;-5.14;100.00
71778;BME280;59609;52.430;4.668;2022-12-18T07:02:41;102728.81;;;-5.14;100.00
71778;BME280;59609;52.430;4.668;2022-12-18T07:05:07;102728.91;;;-5.21;100.00
71778;BME280;59609;52.430;4.668;2022-12-18T07:07:34;102735.13;;;-5.18;100.00
71778;BME280;59609;52.430;4.668;2022-12-18T07:09:59;102736.97;;;-5.22;100.00
71778;BME280;59609;52.430;4.668;2022-12-18T07:12:26;102736.94;;;-5.19;100.00
71778;BME280;59609;52.430;4.668;2022-12-18T07:14:52;102737.88;;;-5.23;100.00
71778;BME280;59609;52.430;4.668;2022-12-18T07:17:17;102728.91;;;-5.22;100.00
71778;BME280;59609;52.430;4.668;2022-12-18T07:19:43;102732.50;;;-5.23;100.00
71778;BME280;59609;52.430;4.668;2022-12-18T07:22:08;102725.38;;;-5.24;100.00
71778;BME280;59609;52.430;4.668;2022-12-18T07:24:33;102713.63;;;-5.17;100.00
71778;BME280;59609;52.430;4.668;2022-12-18T07:26:59;102693.91;;;-5.16;100.00
71778;BME280;59609;52.430;4.668;2022-12-18T07:29:25;102701.03;;;-5.13;100.00
71778;BME280;59609;52.430;4.668;2022-12-18T07:31:50;102678.75;;;-5.20;100.00
71778;BME280;59609;52.430;4.668;2022-12-18T07:34:17;102676.00;;;-5.14;100.00
71778;BME280;59609;52.430;4.668;2022-12-18T07:36:43;102671.41;;;-5.09;100.00
71778;BME280;59609;52.430;4.668;2022-12-18T07:39:08;102664.19;;;-5.05;100.00
71778;BME280;59609;52.430;4.668;2022-12-18T07:41:33;102655.28;;;-5.07;100.00
71778;BME280;59609;52.430;4.668;2022-12-18T07:43:59;102647.19;;;-5.06;100.00
71778;BME280;59609;52.430;4.668;2022-12-18T07:46:24;102634.66;;;-5.07;100.00
71778;BME280;59609;52.430;4.668;2022-12-18T07:48:49;102640.88;;;-5.03;100.00
71778;BME280;59609;52.430;4.668;2022-12-18T07:51:15;102639.06;;;-5.01;100.00
71778;BME280;59609;52.430;4.668;2022-12-18T07:53:40;102647.03;;;-4.95;100.00
71778;BME280;59609;52.430;4.668;2022-12-18T07:56:08;102656.00;;;-4.96;100.00
71778;BME280;59609;52.430;4.668;2022-12-18T07:58:35;102665.84;;;-4.97;100.00
71778;BME280;59609;52.430;4.668;2022-12-18T08:03:29;102685.44;;;-4.90;100.00
71778;BME280;59609;52.430;4.668;2022-12-18T08:06:01;102694.34;;;-4.87;100.00
71778;BME280;59609;52.430;4.668;2022-12-18T08:08:27;102693.41;;;-4.83;100.00
71778;BME280;59609;52.430;4.668;2022-12-18T08:10:53;102689.75;;;-4.79;100.00
71778;BME280;59609;52.430;4.668;2022-12-18T08:13:18;102684.31;;;-4.76;100.00
71778;BME280;59609;52.430;4.668;2022-12-18T08:15:43;102685.22;;;-4.77;100.00
71778;BME280;59609;52.430;4.668;2022-12-18T08:18:09;102689.75;;;-4.79;100.00
71778;BME280;59609;52.430;4.668;2022-12-18T08:20:34;102692.44;;;-4.79;100.00
71778;BME280;59609;52.430;4.668;2022-12-18T08:22:59;102695.06;;;-4.76;100.00
71778;BME280;59609;52.430;4.668;2022-12-18T08:25:25;102695.94;;;-4.74;100.00
71778;BME280;59609;52.430;4.668;2022-12-18T08:27:50;102697.66;;;-4.70;100.00
71778;BME280;59609;52.430;4.668;2022-12-18T08:30:16;102673.53;;;-4.73;100.00
71778;BME280;59609;52.430;4.668;2022-12-18T08:32:41;102671.50;;;-4.60;100.00
71778;BME280;59609;52.430;4.668;2022-12-18T08:35:07;102675.97;;;-4.57;100.00
71778;BME280;59609;52.430;4.668;2022-12-18T08:37:33;102676.81;;;-4.55;100.00
71778;BME280;59609;52.430;4.668;2022-12-18T08:39:58;102675.84;;;-4.51;100.00
71778;BME280;59609;52.430;4.668;2022-12-18T08:42:24;102674.78;;;-4.41;100.00
71778;BME280;59609;52.430;4.668;2022-12-18T08:45:08;102683.63;;;-4.35;100.00
71778;BME280;59609;52.430;4.668;2022-12-18T08:47:34;102684.41;;;-4.28;100.00
71778;BME280;59609;52.430;4.668;2022-12-18T08:49:59;102678.84;;;-4.19;100.00
71778;BME280;59609;52.430;4.668;2022-12-18T08:52:25;102676.09;;;-4.16;100.00
71778;BME280;59609;52.430;4.668;2022-12-18T08:54:50;102672.41;;;-4.10;100.00
71778;BME280;59609;52.430;4.668;2022-12-18T08:57:16;102673.34;;;-4.13;100.00
71778;BME280;59609;52.430;4.668;2022-12-18T08:59:41;102681.25;;;-4.04;100.00
71778;BME280;59609;52.430;4.668;2022-12-18T09:02:09;102685.66;;;-4.00;100.00
71778;BME280;59609;52.430;4.668;2022-12-18T09:04:35;102691.84;;;-3.95;100.00
71778;BME280;59609;52.430;4.668;2022-12-18T09:07:00;102697.16;;;-3.92;100.00
71778;BME280;59609;52.430;4.668;2022-12-18T09:09:26;102701.59;;;-3.89;100.00
71778;BME280;59609;52.430;4.668;2022-12-18T09:11:52;102680.06;;;-3.89;100.00
71778;BME280;59609;52.430;4.668;2022-12-18T09:14:17;102664.72;;;-3.86;100.00
71778;BME280;59609;52.430;4.668;2022-12-18T09:16:42;102659.00;;;-3.69;100.00
71778;BME280;59609;52.430;4.668;2022-12-18T09:19:12;102677.09;;;-3.76;100.00
71778;BME280;59609;52.430;4.668;2022-12-18T09:21:37;102668.94;;;-3.71;100.00
71778;BME280;59609;52.430;4.668;2022-12-18T09:24:04;102669.75;;;-3.68;100.00
71778;BME280;59609;52.430;4.668;2022-12-18T09:26:30;102663.25;;;-3.57;100.00
71778;BME280;59609;52.430;4.668;2022-12-18T09:28:55;102653.25;;;-3.51;100.00
71778;BME280;59609;52.430;4.668;2022-12-18T09:31:22;102660.31;;;-3.47;100.00
71778;BME280;59609;52.430;4.668;2022-12-18T09:33:48;102650.47;;;-3.48;100.00
71778;BME280;59609;52.430;4.668;2022-12-18T09:36:15;102637.09;;;-3.52;100.00
71778;BME280;59609;52.430;4.668;2022-12-18T09:38:41;102633.34;;;-3.45;100.00
71778;BME280;59609;52.430;4.668;2022-12-18T09:43:48;102626.09;;;-3.43;100.00
71778;BME280;59609;52.430;4.668;2022-12-18T09:46:23;102624.13;;;-3.34;100.00
71778;BME280;59609;52.430;4.668;2022-12-18T09:48:52;102624.06;;;-3.32;100.00
71778;BME280;59609;52.430;4.668;2022-12-18T09:51:23;102623.91;;;-3.26;100.00
71778;BME280;59609;52.430;4.668;2022-12-18T09:54:48;102624.59;;;-3.17;100.00
71778;BME280;59609;52.430;4.668;2022-12-18T09:57:14;102624.78;;;-3.24;100.00
71778;BME280;59609;52.430;4.668;2022-12-18T09:59:41;102629.22;;;-3.23;100.00
71778;BME280;59609;52.430;4.668;2022-12-18T10:02:14;102635.50;;;-3.21;100.00
71778;BME280;59609;52.430;4.668;2022-12-18T10:04:39;102620.34;;;-3.27;100.00
71778;BME280;59609;52.430;4.668;2022-12-18T10:07:14;102625.53;;;-3.18;100.00
71778;BME280;59609;52.430;4.668;2022-12-18T10:10:03;102638.13;;;-3.20;100.00
71778;BME280;59609;52.430;4.668;2022-12-18T10:12:32;102636.16;;;-3.12;100.00
71778;BME280;59609;52.430;4.668;2022-12-18T10:15:28;102628.81;;;-3.05;100.00
71778;BME280;59609;52.430;4.668;2022-12-18T10:20:34;102621.66;;;-3.06;100.00
71778;BME280;59609;52.430;4.668;2022-12-18T10:28:18;102614.22;;;-2.96;100.00
71778;BME280;59609;52.430;4.668;2022-12-18T10:30:44;102613.44;;;-3.01;100.00
71778;BME280;59609;52.430;4.668;2022-12-18T10:33:21;102621.22;;;-2.88;100.00
71778;BME280;59609;52.430;4.668;2022-12-18T10:35:50;102616.72;;;-2.87;100.00
71778;BME280;59609;52.430;4.668;2022-12-18T10:41:01;102614.59;;;-2.76;100.00
71778;BME280;59609;52.430;4.668;2022-12-18T10:48:35;102576.56;;;-2.66;100.00
71778;BME280;59609;52.430;4.668;2022-12-18T10:51:02;102570.25;;;-2.65;100.00
71778;BME280;59609;52.430;4.668;2022-12-18T10:53:30;102571.09;;;-2.63;100.00
71778;BME280;59609;52.430;4.668;2022-12-18T10:55:58;102568.47;;;-2.66;100.00
71778;BME280;59609;52.430;4.668;2022-12-18T10:58:27;102557.56;;;-2.61;100.00
71778;BME280;59609;52.430;4.668;2022-12-18T11:03:58;102553.66;;;-2.49;100.00
71778;BME280;59609;52.430;4.668;2022-12-18T11:06:24;102566.31;;;-2.51;100.00
71778;BME280;59609;52.430;4.668;2022-12-18T11:11:28;102561.44;;;-2.39;100.00
71778;BME280;59609;52.430;4.668;2022-12-18T11:14:03;102567.56;;;-2.32;100.00
71778;BME280;59609;52.430;4.668;2022-12-18T11:16:34;102557.69;;;-2.33;100.00
71778;BME280;59609;52.430;4.668;2022-12-18T11:21:46;102557.53;;;-2.27;100.00
71778;BME280;59609;52.430;4.668;2022-12-18T11:24:31;102550.28;;;-2.27;100.00
71778;BME280;59609;52.430;4.668;2022-12-18T11:27:00;102536.56;;;-2.18;100.00
71778;BME280;59609;52.430;4.668;2022-12-18T11:29:39;102549.38;;;-2.26;100.00
71778;BME280;59609;52.430;4.668;2022-12-18T11:32:27;102542.91;;;-2.20;100.00
71778;BME280;59609;52.430;4.668;2022-12-18T11:37:36;102534.81;;;-2.20;100.00
71778;BME280;59609;52.430;4.668;2022-12-18T11:40:09;102519.34;;;-2.14;100.00
71778;BME280;59609;52.430;4.668;2022-12-18T11:42:55;102512.00;;;-2.10;100.00
71778;BME280;59609;52.430;4.668;2022-12-18T11:48:00;102506.72;;;-2.13;100.00
71778;BME280;59609;52.430;4.668;2022-12-18T11:50:49;102495.75;;;-2.07;100.00
71778;BME280;59609;52.430;4.668;2022-12-18T11:53:15;102484.06;;;-2.08;100.00
71778;BME280;59609;52.430;4.668;2022-12-18T11:55:43;102491.84;;;-1.97;100.00
71778;BME280;59609;52.430;4.668;2022-12-18T12:01:33;102472.66;;;-1.88;100.00
71778;BME280;59609;52.430;4.668;2022-12-18T12:07:11;102473.47;;;-1.86;100.00
71778;BME280;59609;52.430;4.668;2022-12-18T12:09:49;102471.66;;;-1.85;100.00
71778;BME280;59609;52.430;4.668;2022-12-18T12:26:09;102456.19;;;-1.52;100.00
71778;BME280;59609;52.430;4.668;2022-12-18T12:31:18;102439.88;;;-1.49;100.00
71778;BME280;59609;52.430;4.668;2022-12-18T12:34:07;102450.75;;;-1.51;100.00
71778;BME280;59609;52.430;4.668;2022-12-18T12:39:30;102443.06;;;-1.37;100.00
71778;BME280;59609;52.430;4.668;2022-12-18T12:41:57;102417.88;;;-1.39;100.00
71778;BME280;59609;52.430;4.668;2022-12-18T12:44:44;102413.50;;;-1.43;100.00
71778;BME280;59609;52.430;4.668;2022-12-18T12:47:24;102413.03;;;-1.29;100.00
71778;BME280;59609;52.430;4.668;2022-12-18T12:49:52;102411.44;;;-1.35;100.00
71778;BME280;59609;52.430;4.668;2022-12-18T12:54:51;102401.22;;;-1.27;100.00
71778;BME280;59609;52.430;4.668;2022-12-18T12:57:30;102394.44;;;-1.38;100.00
71778;BME280;59609;52.430;4.668;2022-12-18T13:02:53;102395.94;;;-1.30;100.00
71778;BME280;59609;52.430;4.668;2022-12-18T13:05:40;102400.38;;;-1.27;100.00
71778;BME280;59609;52.430;4.668;2022-12-18T13:08:21;102399.63;;;-1.32;100.00
71778;BME280;59609;52.430;4.668;2022-12-18T13:10:47;102392.28;;;-1.27;100.00
71778;BME280;59609;52.430;4.668;2022-12-18T13:13:14;102391.19;;;-1.23;100.00
71778;BME280;59609;52.430;4.668;2022-12-18T13:16:05;102377.69;;;-1.23;100.00
71778;BME280;59609;52.430;4.668;2022-12-18T13:18:31;102375.94;;;-1.24;100.00
71778;BME280;59609;52.430;4.668;2022-12-18T13:25:52;102352.28;;;-1.18;100.00
71778;BME280;59609;52.430;4.668;2022-12-18T13:30:59;102332.34;;;-1.15;100.00
71778;BME280;59609;52.430;4.668;2022-12-18T13:36:47;102322.34;;;-1.13;100.00
71778;BME280;59609;52.430;4.668;2022-12-18T13:41:36;102299.78;;;-1.12;100.00
71778;BME280;59609;52.430;4.668;2022-12-18T13:44:12;102305.69;;;-1.01;99.91
71778;BME280;59609;52.430;4.668;2022-12-18T13:46:48;102300.16;;;-0.98;98.49
71778;BME280;59609;52.430;4.668;2022-12-18T13:52:01;102297.22;;;-0.92;98.28
71778;BME280;59609;52.430;4.668;2022-12-18T13:54:39;102295.28;;;-0.88;98.61
71778;BME280;59609;52.430;4.668;2022-12-18T13:59:50;102283.28;;;-0.81;97.88
71778;BME280;59609;52.430;4.668;2022-12-18T14:02:26;102285.06;;;-0.80;98.42
71778;BME280;59609;52.430;4.668;2022-12-18T14:04:53;102280.63;;;-0.83;99.10
71778;BME280;59609;52.430;4.668;2022-12-18T14:07:24;102281.56;;;-0.84;98.09
71778;BME280;59609;52.430;4.668;2022-12-18T14:09:55;102285.84;;;-0.78;97.51
71778;BME280;59609;52.430;4.668;2022-12-18T14:17:58;102290.22;;;-0.74;97.62
71778;BME280;59609;52.430;4.668;2022-12-18T14:20:25;102282.16;;;-0.76;97.84
71778;BME280;59609;52.430;4.668;2022-12-18T14:22:50;102274.75;;;-0.71;97.59
71778;BME280;59609;52.430;4.668;2022-12-18T14:25:23;102268.38;;;-0.70;98.57
71778;BME280;59609;52.430;4.668;2022-12-18T14:30:42;102246.09;;;-0.76;97.36
71778;BME280;59609;52.430;4.668;2022-12-18T14:33:20;102242.03;;;-0.65;96.81
71778;BME280;59609;52.430;4.668;2022-12-18T14:35:58;102234.78;;;-0.64;96.74
71778;BME280;59609;52.430;4.668;2022-12-18T14:38:38;102228.50;;;-0.65;97.20
71778;BME280;59609;52.430;4.668;2022-12-18T14:41:06;102222.06;;;-0.62;96.93
71778;BME280;59609;52.430;4.668;2022-12-18T14:43:36;102208.72;;;-0.67;97.40
71778;BME280;59609;52.430;4.668;2022-12-18T14:46:04;102222.19;;;-0.65;95.98
71778;BME280;59609;52.430;4.668;2022-12-18T14:51:27;102221.06;;;-0.60;96.50
71778;BME280;59609;52.430;4.668;2022-12-18T14:53:57;102223.72;;;-0.58;96.53